Time;durP1;ratioP1;P1;durP2;ratioP2;P2;SDS_P1;SDS_P2;PMS_P1;PMS_P2;Temp;Humidity;BMP_temperature;BMP_pressure;BME280_temperature;BME280_humidity;BME280_pressure;Samples;Min_cycle;Max_cycle;Signal;HPM_P1;HPM_P2
2023/12/16 00:00:29;;;;;;;7.88;3.33;;;7.80;99.90;;;;;;4984791;28;20062;-64
2023/12/16 00:02:56;;;;;;;8.30;3.10;;;7.70;99.90;;;;;;4984610;28;20377;-63
2023/12/16 00:05:22;;;;;;;10.73;3.83;;;7.70;99.90;;;;;;4968131;28;20065;-63
2023/12/16 00:07:48;;;;;;;9.48;3.38;;;7.70;99.90;;;;;;4984887;28;20054;-64
2023/12/16 00:10:16;;;;;;;10.45;2.80;;;7.60;99.90;;;;;;4985239;28;20058;-64
2023/12/16 00:12:42;;;;;;;6.20;2.97;;;7.70;99.90;;;;;;4985130;28;20054;-64
2023/12/16 00:15:10;;;;;;;9.45;3.72;;;7.70;99.90;;;;;;4984731;28;20394;-63
2023/12/16 00:17:36;;;;;;;12.70;3.10;;;7.70;99.90;;;;;;4969052;28;20351;-63
2023/12/16 00:20:03;;;;;;;10.70;3.47;;;7.80;99.90;;;;;;4985092;28;20400;-63
2023/12/16 00:22:30;;;;;;;12.85;2.83;;;7.70;99.90;;;;;;4968439;28;20058;-63
2023/12/16 00:24:56;;;;;;;7.97;2.85;;;7.70;99.90;;;;;;4984461;28;20057;-64
2023/12/16 00:27:23;;;;;;;10.93;3.25;;;7.70;99.90;;;;;;4984392;28;20133;-62
2023/12/16 00:29:49;;;;;;;9.20;2.67;;;7.60;99.90;;;;;;4969063;28;20458;-64
2023/12/16 00:32:15;;;;;;;6.65;2.85;;;7.70;99.90;;;;;;4985071;28;20504;-64
2023/12/16 00:34:42;;;;;;;6.88;2.80;;;7.60;99.90;;;;;;4985408;28;20054;-64
2023/12/16 00:37:08;;;;;;;6.70;2.80;;;7.60;99.90;;;;;;4984210;28;20047;-64
2023/12/16 00:39:34;;;;;;;7.30;3.30;;;7.60;99.90;;;;;;4985781;28;20130;-64
2023/12/16 00:42:01;;;;;;;7.20;2.58;;;7.60;99.90;;;;;;4984619;28;20054;-65
2023/12/16 00:44:27;;;;;;;6.85;2.85;;;7.70;99.90;;;;;;4984745;28;20337;-64
2023/12/16 00:46:53;;;;;;;6.55;2.83;;;7.60;99.90;;;;;;4984071;28;20084;-64
2023/12/16 00:49:21;;;;;;;9.68;3.38;;;7.60;99.90;;;;;;4987296;28;20061;-63
2023/12/16 00:51:47;;;;;;;7.97;2.80;;;7.50;99.90;;;;;;4987888;28;20474;-63
2023/12/16 00:54:13;;;;;;;6.18;3.03;;;7.50;99.90;;;;;;4987466;28;20046;-63
2023/12/16 00:56:40;;;;;;;5.85;3.00;;;7.50;99.90;;;;;;4987138;28;20060;-63
2023/12/16 00:59:06;;;;;;;9.70;3.08;;;7.50;99.90;;;;;;4987797;28;20158;-64
2023/12/16 01:01:32;;;;;;;7.78;2.50;;;7.30;99.90;;;;;;4987767;28;20054;-64
2023/12/16 01:03:59;;;;;;;9.10;2.60;;;7.40;99.90;;;;;;4987429;28;20181;-63
2023/12/16 01:06:25;;;;;;;5.72;2.58;;;7.30;99.90;;;;;;4987428;28;20056;-64
2023/12/16 01:08:51;;;;;;;9.20;2.90;;;7.20;99.90;;;;;;4987852;28;20098;-64
2023/12/16 01:11:18;;;;;;;7.15;2.50;;;7.20;99.90;;;;;;4988163;28;20140;-64
2023/12/16 01:13:44;;;;;;;7.43;2.83;;;7.10;99.90;;;;;;4971707;28;20077;-63
2023/12/16 01:16:10;;;;;;;11.02;2.95;;;7.10;99.90;;;;;;4987040;28;20095;-63
2023/12/16 01:18:37;;;;;;;8.13;2.78;;;7.00;99.90;;;;;;4987561;28;20079;-64
2023/12/16 01:21:05;;;;;;;10.80;3.15;;;7.10;99.90;;;;;;4987287;28;20137;-64
2023/12/16 01:23:32;;;;;;;9.32;2.97;;;7.00;99.90;;;;;;4987113;28;20468;-64
2023/12/16 01:25:59;;;;;;;6.68;2.85;;;7.00;99.90;;;;;;4985886;28;20308;-64
2023/12/16 01:28:26;;;;;;;8.25;3.00;;;6.80;99.90;;;;;;4987161;28;20061;-64
2023/12/16 01:30:52;;;;;;;11.15;3.40;;;6.90;99.90;;;;;;4971410;28;20058;-64
2023/12/16 01:33:18;;;;;;;10.35;3.10;;;6.80;99.90;;;;;;4987291;28;20054;-64
2023/12/16 01:35:45;;;;;;;11.50;2.97;;;6.70;99.90;;;;;;4986425;28;20117;-64
2023/12/16 01:38:12;;;;;;;8.30;2.83;;;6.80;99.90;;;;;;4986906;28;20050;-63
2023/12/16 01:40:38;;;;;;;8.07;3.00;;;6.70;99.90;;;;;;4971027;28;20445;-64
2023/12/16 01:43:05;;;;;;;10.48;2.78;;;6.70;99.90;;;;;;4988055;28;20369;-64
2023/12/16 01:45:31;;;;;;;5.32;2.55;;;6.70;99.90;;;;;;4986219;28;20402;-63
2023/12/16 01:47:59;;;;;;;7.00;2.70;;;6.60;99.90;;;;;;4971214;28;20062;-63
2023/12/16 01:50:26;;;;;;;8.85;2.92;;;6.70;99.90;;;;;;4987073;28;20065;-64
2023/12/16 01:52:53;;;;;;;9.57;2.75;;;6.70;99.90;;;;;;4986695;28;20054;-63
2023/12/16 01:55:20;;;;;;;8.43;2.78;;;6.60;99.90;;;;;;4986309;28;20050;-64
2023/12/16 01:57:47;;;;;;;7.75;2.50;;;6.70;99.90;;;;;;4986886;28;20097;-64
2023/12/16 02:00:14;;;;;;;7.55;3.00;;;6.60;99.90;;;;;;4985554;28;20054;-63
2023/12/16 02:02:42;;;;;;;12.40;3.50;;;6.60;99.90;;;;;;4986631;28;20746;-64
2023/12/16 02:05:09;;;;;;;8.80;2.78;;;6.60;99.90;;;;;;4986274;28;20418;-64
2023/12/16 02:07:35;;;;;;;10.48;3.00;;;6.60;99.90;;;;;;4986297;28;20053;-63
2023/12/16 02:10:01;;;;;;;9.57;3.00;;;6.60;99.90;;;;;;4986602;28;20347;-63
2023/12/16 02:12:28;;;;;;;8.57;2.67;;;6.50;99.90;;;;;;4970768;28;20409;-64
2023/12/16 02:14:54;;;;;;;9.45;3.25;;;6.40;99.90;;;;;;4985918;28;20045;-63
2023/12/16 02:17:20;;;;;;;11.68;3.03;;;6.50;99.90;;;;;;4986047;28;20081;-63
2023/12/16 02:19:49;;;;;;;7.55;3.22;;;6.50;99.90;;;;;;4986783;28;20050;-64
2023/12/16 02:22:15;;;;;;;8.02;2.70;;;6.50;99.90;;;;;;4986366;28;20052;-63
2023/12/16 02:24:42;;;;;;;6.75;2.67;;;6.40;99.90;;;;;;4986319;28;20069;-64
2023/12/16 02:27:08;;;;;;;10.13;3.30;;;6.40;99.90;;;;;;4986343;28;20435;-64
2023/12/16 02:29:34;;;;;;;9.35;2.75;;;6.30;99.90;;;;;;4986892;28;20070;-63
2023/12/16 02:32:01;;;;;;;12.10;3.03;;;6.30;99.90;;;;;;4986157;28;20058;-64
2023/12/16 02:34:28;;;;;;;7.82;3.20;;;6.40;99.90;;;;;;4986140;28;20461;-63
2023/12/16 02:36:54;;;;;;;8.48;2.70;;;6.30;99.90;;;;;;4985343;28;20482;-64
2023/12/16 02:39:21;;;;;;;10.07;3.78;;;6.40;99.90;;;;;;4986038;28;20490;-64
2023/12/16 02:41:47;;;;;;;8.18;2.75;;;6.40;99.90;;;;;;4986321;28;20046;-64
2023/12/16 02:44:14;;;;;;;9.93;2.83;;;6.40;99.90;;;;;;4985788;28;20104;-64
2023/12/16 02:46:40;;;;;;;8.05;2.72;;;6.40;99.90;;;;;;4984947;28;20078;-64
2023/12/16 02:49:06;;;;;;;8.57;3.10;;;6.40;99.90;;;;;;4985837;28;20073;-64
2023/12/16 02:51:32;;;;;;;13.02;3.40;;;6.30;99.90;;;;;;4985791;28;20046;-64
2023/12/16 02:53:59;;;;;;;7.45;2.55;;;6.40;99.90;;;;;;4985778;28;20101;-64
2023/12/16 02:56:25;;;;;;;10.02;2.95;;;6.40;99.90;;;;;;4984967;28;20054;-64
2023/12/16 02:58:51;;;;;;;8.95;3.97;;;6.40;99.90;;;;;;4986051;28;20114;-64
2023/12/16 03:01:18;;;;;;;12.48;3.20;;;6.30;99.90;;;;;;4985844;28;20047;-63
2023/12/16 03:03:44;;;;;;;6.63;2.75;;;6.40;99.90;;;;;;4985721;28;20054;-63
2023/12/16 03:06:10;;;;;;;8.88;2.85;;;6.30;99.90;;;;;;4985287;28;20408;-63
2023/12/16 03:08:38;;;;;;;6.78;3.03;;;6.30;99.90;;;;;;4986158;28;20055;-63
2023/12/16 03:11:04;;;;;;;7.00;2.63;;;6.30;99.90;;;;;;4969833;28;20051;-64
2023/12/16 03:13:31;;;;;;;10.95;3.80;;;6.20;99.90;;;;;;4985343;28;20214;-64
2023/12/16 03:15:57;;;;;;;10.57;3.17;;;6.30;99.90;;;;;;4984513;28;20394;-63
2023/12/16 03:18:24;;;;;;;7.45;2.60;;;6.30;99.90;;;;;;4985452;28;20450;-64
2023/12/16 03:20:50;;;;;;;9.13;3.40;;;6.20;99.90;;;;;;4985132;28;20064;-64
2023/12/16 03:23:17;;;;;;;8.73;3.05;;;6.20;99.90;;;;;;4983523;28;20057;-64
2023/12/16 03:25:43;;;;;;;8.85;3.42;;;6.20;99.90;;;;;;4984529;28;20061;-62
2023/12/16 03:28:10;;;;;;;12.93;3.00;;;6.20;99.90;;;;;;4984122;28;20054;-64
2023/12/16 03:30:40;;;;;;;9.43;2.90;;;6.20;99.90;;;;;;4985073;28;20481;-64
2023/12/16 03:33:09;;;;;;;15.85;4.03;;;6.20;99.90;;;;;;4968778;28;20065;-63
2023/12/16 03:35:36;;;;;;;8.95;2.70;;;6.10;99.90;;;;;;4968531;28;20050;-63
2023/12/16 03:38:02;;;;;;;7.65;2.70;;;6.20;99.90;;;;;;4985294;28;20046;-64
2023/12/16 03:40:29;;;;;;;11.18;3.35;;;6.20;99.90;;;;;;4985508;28;20717;-64
2023/12/16 03:42:59;;;;;;;6.97;2.58;;;6.10;99.90;;;;;;4985399;28;20046;-63
2023/12/16 03:45:25;;;;;;;9.55;2.80;;;6.20;99.90;;;;;;4984209;28;20066;-63
2023/12/16 03:47:52;;;;;;;8.60;3.60;;;6.20;99.90;;;;;;4984960;28;20054;-64
2023/12/16 03:50:18;;;;;;;7.28;2.55;;;6.10;99.90;;;;;;4985343;28;20065;-64
2023/12/16 03:52:44;;;;;;;6.47;2.60;;;6.20;99.90;;;;;;4968825;28;20421;-64
2023/12/16 03:55:11;;;;;;;7.88;2.90;;;6.20;99.90;;;;;;4968231;28;20095;-64
2023/12/16 03:57:38;;;;;;;9.02;2.72;;;6.20;99.90;;;;;;4968533;28;20061;-64
2023/12/16 04:00:05;;;;;;;8.27;2.88;;;6.10;99.90;;;;;;4985108;28;20058;-63
2023/12/16 04:02:31;;;;;;;9.45;2.92;;;6.20;99.90;;;;;;4985305;28;20093;-63
2023/12/16 04:04:57;;;;;;;10.80;3.10;;;6.20;99.90;;;;;;4984720;28;20062;-62
2023/12/16 04:07:24;;;;;;;9.23;2.92;;;6.10;99.90;;;;;;4984311;28;20135;-63
2023/12/16 04:09:50;;;;;;;6.38;2.42;;;6.20;99.90;;;;;;4985334;28;20058;-63
2023/12/16 04:12:16;;;;;;;10.80;2.53;;;6.20;99.90;;;;;;4985000;28;20276;-63
2023/12/16 04:14:43;;;;;;;8.95;2.90;;;6.20;99.90;;;;;;4984185;28;20105;-63
2023/12/16 04:17:09;;;;;;;10.25;2.53;;;6.20;99.90;;;;;;4984351;28;20209;-64
2023/12/16 04:19:37;;;;;;;8.13;3.10;;;6.30;99.90;;;;;;4984919;28;20050;-64
2023/12/16 04:22:03;;;;;;;11.18;3.03;;;6.30;99.90;;;;;;4984422;28;20073;-63
2023/12/16 04:24:30;;;;;;;8.52;2.72;;;6.30;99.90;;;;;;4971563;28;20062;-63
2023/12/16 04:26:56;;;;;;;11.32;3.67;;;6.30;99.90;;;;;;4987442;28;20061;-63
2023/12/16 04:29:22;;;;;;;8.05;2.35;;;6.30;99.90;;;;;;4987910;28;20054;-64
2023/12/16 04:31:49;;;;;;;10.10;3.05;;;6.20;99.90;;;;;;4987620;28;20167;-63
2023/12/16 04:34:15;;;;;;;10.10;3.03;;;6.30;99.90;;;;;;4987441;28;20449;-63
2023/12/16 04:36:41;;;;;;;9.82;3.03;;;6.30;99.90;;;;;;4987203;28;20046;-63
2023/12/16 04:39:08;;;;;;;5.47;2.65;;;6.30;99.90;;;;;;4986554;28;20073;-63
2023/12/16 04:41:34;;;;;;;10.32;3.38;;;6.20;99.90;;;;;;4976175;28;20150;-64
2023/12/16 04:44:01;;;;;;;10.52;3.00;;;6.20;99.90;;;;;;4964031;28;20442;-64
2023/12/16 04:46:27;;;;;;;10.07;3.05;;;6.30;99.90;;;;;;4976371;28;20532;-63
2023/12/16 04:48:54;;;;;;;13.00;3.70;;;6.30;99.90;;;;;;4977063;28;20242;-64
2023/12/16 04:51:20;;;;;;;12.43;4.00;;;6.20;99.90;;;;;;4962931;28;20082;-64
2023/12/16 04:53:46;;;;;;;8.38;3.00;;;6.30;99.90;;;;;;4978945;28;20051;-63
2023/12/16 04:56:13;;;;;;;8.55;3.17;;;6.30;99.90;;;;;;4975916;28;20050;-64
2023/12/16 04:58:39;;;;;;;10.68;3.30;;;6.20;99.90;;;;;;4974589;28;20038;-64
2023/12/16 05:01:05;;;;;;;11.82;3.00;;;6.20;99.90;;;;;;4987671;28;20050;-64
2023/12/16 05:03:32;;;;;;;9.80;3.63;;;6.30;99.90;;;;;;4987718;28;20054;-64
2023/12/16 05:05:59;;;;;;;13.25;3.45;;;6.20;99.90;;;;;;4986658;28;20529;-64
2023/12/16 05:08:25;;;;;;;11.40;3.50;;;6.20;99.90;;;;;;4987592;28;20307;-64
2023/12/16 05:10:51;;;;;;;13.18;3.92;;;6.00;99.90;;;;;;4987927;28;20058;-64
2023/12/16 05:13:18;;;;;;;14.48;3.75;;;6.10;99.90;;;;;;4971522;28;20497;-64
2023/12/16 05:15:44;;;;;;;11.73;4.00;;;6.10;99.90;;;;;;4987140;28;20046;-63
2023/12/16 05:18:10;;;;;;;9.27;3.42;;;6.00;99.90;;;;;;4970897;28;20055;-63
2023/12/16 05:20:37;;;;;;;11.55;3.47;;;6.10;99.90;;;;;;4987673;28;20522;-65
2023/12/16 05:23:03;;;;;;;12.02;4.43;;;6.00;99.90;;;;;;4989037;28;20050;-64
2023/12/16 05:25:30;;;;;;;10.02;3.75;;;6.00;99.90;;;;;;4987311;28;20066;-64
2023/12/16 05:27:57;;;;;;;12.75;3.92;;;6.20;99.90;;;;;;4968336;28;20471;-64
2023/12/16 05:30:24;;;;;;;13.40;4.18;;;6.10;99.90;;;;;;4976493;28;20042;-64
2023/12/16 05:32:51;;;;;;;13.75;5.03;;;6.20;99.90;;;;;;4978086;28;20050;-63
2023/12/16 05:35:19;;;;;;;15.75;4.10;;;6.20;99.90;;;;;;4978121;28;20053;-64
2023/12/16 05:37:47;;;;;;;11.85;4.25;;;6.00;99.90;;;;;;4963749;28;20051;-63
2023/12/16 05:40:13;;;;;;;15.52;4.40;;;6.20;99.90;;;;;;4966416;28;20137;-64
2023/12/16 05:42:40;;;;;;;10.57;4.40;;;6.10;99.90;;;;;;4986920;28;20375;-64
2023/12/16 05:45:07;;;;;;;18.48;5.18;;;6.10;99.90;;;;;;4969694;28;20059;-64
2023/12/16 05:47:34;;;;;;;14.23;4.32;;;6.00;99.90;;;;;;4985795;28;20137;-64
2023/12/16 05:50:03;;;;;;;17.65;4.28;;;6.00;99.90;;;;;;4969952;28;20081;-63
2023/12/16 05:52:30;;;;;;;12.77;4.82;;;6.10;99.90;;;;;;4987124;28;20580;-63
2023/12/16 05:54:56;;;;;;;13.30;4.32;;;6.10;99.90;;;;;;4985875;28;20061;-64
2023/12/16 05:57:23;;;;;;;9.43;3.95;;;5.90;99.90;;;;;;4985917;28;20046;-64
2023/12/16 05:59:49;;;;;;;10.98;3.92;;;6.00;99.90;;;;;;4987044;28;20060;-63
2023/12/16 06:02:16;;;;;;;11.88;4.40;;;6.00;99.90;;;;;;4987187;28;20400;-63
2023/12/16 06:04:42;;;;;;;11.35;4.53;;;6.00;99.90;;;;;;4970033;28;20361;-63
2023/12/16 06:07:08;;;;;;;14.35;4.28;;;6.00;99.90;;;;;;4986314;28;20054;-64
2023/12/16 06:09:35;;;;;;;12.52;4.47;;;5.80;99.90;;;;;;4986870;28;20055;-63
2023/12/16 06:12:02;;;;;;;10.95;4.22;;;5.80;99.90;;;;;;4985041;28;20058;-63
2023/12/16 06:14:29;;;;;;;11.35;4.57;;;5.90;99.90;;;;;;4985950;28;20488;-64
2023/12/16 06:16:55;;;;;;;14.32;4.78;;;6.00;99.90;;;;;;4969132;28;20050;-65
2023/12/16 06:19:22;;;;;;;11.57;3.45;;;5.90;99.90;;;;;;4986402;28;20060;-64
2023/12/16 06:21:48;;;;;;;12.57;4.28;;;5.80;99.90;;;;;;4969396;28;20058;-64
2023/12/16 06:24:14;;;;;;;12.30;4.60;;;6.00;99.90;;;;;;4986335;28;20329;-65
2023/12/16 06:26:41;;;;;;;14.73;4.68;;;6.00;99.90;;;;;;4985767;28;20069;-64
2023/12/16 06:29:07;;;;;;;14.35;4.80;;;5.80;99.90;;;;;;4986686;28;20062;-64
2023/12/16 06:31:34;;;;;;;15.40;4.50;;;5.80;99.90;;;;;;4987067;28;20133;-64
2023/12/16 06:34:00;;;;;;;9.93;4.72;;;6.00;99.90;;;;;;4986432;28;20046;-63
2023/12/16 06:36:26;;;;;;;12.45;4.95;;;5.80;99.90;;;;;;4985836;28;20064;-65
2023/12/16 06:38:53;;;;;;;15.00;5.03;;;5.80;99.90;;;;;;4986359;28;20344;-64
2023/12/16 06:41:19;;;;;;;12.18;4.28;;;5.70;99.90;;;;;;4970362;28;20162;-64
2023/12/16 06:43:45;;;;;;;15.68;4.93;;;5.80;99.90;;;;;;4986196;28;20047;-65
2023/12/16 06:46:12;;;;;;;13.60;4.63;;;5.80;99.90;;;;;;4984528;28;20467;-63
2023/12/16 06:48:39;;;;;;;15.35;4.70;;;5.90;99.90;;;;;;4985867;28;20427;-64
2023/12/16 06:51:05;;;;;;;11.40;4.35;;;5.80;99.90;;;;;;4985947;28;20114;-64
2023/12/16 06:53:35;;;;;;;12.88;4.60;;;5.70;99.90;;;;;;4985706;28;20057;-64
2023/12/16 06:56:01;;;;;;;12.20;4.78;;;5.60;99.90;;;;;;4985766;28;20119;-64
2023/12/16 06:58:28;;;;;;;16.58;5.10;;;5.80;99.90;;;;;;4985547;28;20129;-62
2023/12/16 07:00:54;;;;;;;10.43;5.13;;;5.70;99.90;;;;;;4986190;28;20080;-64
2023/12/16 07:03:20;;;;;;;15.18;4.68;;;5.80;99.90;;;;;;4986055;28;20433;-64
2023/12/16 07:05:47;;;;;;;17.42;5.10;;;5.60;99.90;;;;;;4985533;28;20050;-63
2023/12/16 07:08:14;;;;;;;16.52;5.03;;;5.80;99.90;;;;;;4986810;28;20058;-64
2023/12/16 07:10:40;;;;;;;16.05;5.53;;;5.70;99.90;;;;;;4970101;28;20541;-64
2023/12/16 07:13:07;;;;;;;15.55;4.53;;;5.60;99.90;;;;;;4969578;28;20062;-65
2023/12/16 07:15:33;;;;;;;15.07;5.10;;;5.70;99.90;;;;;;4969090;28;20060;-65
2023/12/16 07:18:00;;;;;;;25.63;6.72;;;5.80;99.90;;;;;;4985601;28;20057;-64
2023/12/16 07:20:26;;;;;;;11.52;5.32;;;5.60;99.90;;;;;;4985861;28;20074;-64
2023/12/16 07:22:52;;;;;;;11.07;4.95;;;5.70;99.90;;;;;;4985050;28;20046;-65
2023/12/16 07:25:19;;;;;;;14.05;5.05;;;5.70;99.90;;;;;;4985106;28;20064;-64
2023/12/16 07:27:45;;;;;;;10.93;5.65;;;5.60;99.90;;;;;;4984923;28;20141;-63
2023/12/16 07:30:12;;;;;;;16.25;5.25;;;5.60;99.90;;;;;;4985258;28;20058;-65
2023/12/16 07:32:40;;;;;;;12.48;5.72;;;5.60;99.90;;;;;;4969026;28;20089;-65
2023/12/16 07:35:12;;;;;;;12.85;4.93;;;5.60;99.90;;;;;;4981491;28;20054;-64
2023/12/16 07:37:43;;;;;;;13.57;5.60;;;5.80;99.90;;;;;;4980220;28;20047;-64
2023/12/16 07:40:10;;;;;;;12.82;5.25;;;5.80;99.90;;;;;;4972805;28;20054;-65
2023/12/16 07:42:40;;;;;;;13.25;5.20;;;5.80;99.90;;;;;;4972779;28;20058;-64
2023/12/16 07:45:08;;;;;;;14.18;5.13;;;5.60;99.90;;;;;;4970612;28;20060;-64
2023/12/16 07:47:34;;;;;;;18.48;6.00;;;5.80;99.90;;;;;;4980285;28;20089;-64
2023/12/16 07:50:01;;;;;;;17.08;5.18;;;5.80;99.90;;;;;;4984675;28;20054;-65
2023/12/16 07:52:27;;;;;;;17.20;4.97;;;5.70;99.90;;;;;;4984541;28;20245;-64
2023/12/16 07:54:53;;;;;;;13.27;4.70;;;6.00;99.90;;;;;;4983927;28;20050;-64
2023/12/16 07:57:20;;;;;;;15.00;5.65;;;5.90;99.90;;;;;;4964543;28;20050;-64
2023/12/16 07:59:46;;;;;;;14.25;5.45;;;5.90;99.90;;;;;;4968413;28;20054;-64
2023/12/16 08:02:13;;;;;;;15.18;5.85;;;5.90;99.90;;;;;;4969359;28;20059;-63
2023/12/16 08:04:39;;;;;;;18.25;5.78;;;5.90;99.90;;;;;;4957756;28;20066;-65
2023/12/16 08:07:05;;;;;;;14.18;5.13;;;6.00;99.90;;;;;;4962972;28;20046;-64
2023/12/16 08:09:32;;;;;;;16.30;5.72;;;6.10;99.90;;;;;;4979242;28;20050;-64
2023/12/16 08:11:58;;;;;;;17.08;5.13;;;6.10;99.90;;;;;;4977250;28;20080;-64
2023/12/16 08:14:25;;;;;;;14.02;5.60;;;6.30;99.90;;;;;;4959868;28;20092;-63
2023/12/16 08:16:52;;;;;;;15.38;5.35;;;6.20;99.90;;;;;;4979969;28;20404;-64
2023/12/16 08:19:18;;;;;;;17.38;5.47;;;6.30;99.90;;;;;;4979193;28;20273;-64
2023/12/16 08:21:45;;;;;;;15.77;5.40;;;6.20;99.90;;;;;;4976395;28;20046;-63
2023/12/16 08:24:11;;;;;;;16.85;5.88;;;6.50;99.90;;;;;;4976753;28;20054;-64
2023/12/16 08:26:37;;;;;;;13.68;5.07;;;6.20;99.90;;;;;;4978194;28;20042;-63
2023/12/16 08:29:04;;;;;;;14.35;5.30;;;6.30;99.90;;;;;;4981046;28;20372;-65
2023/12/16 08:31:30;;;;;;;13.88;5.60;;;6.40;99.90;;;;;;4983693;28;20049;-64
2023/12/16 08:33:57;;;;;;;17.45;5.88;;;6.50;99.90;;;;;;4979795;28;20063;-64
2023/12/16 08:36:23;;;;;;;15.55;5.57;;;6.50;99.90;;;;;;4962406;28;20160;-64
2023/12/16 08:38:49;;;;;;;19.35;6.10;;;6.40;99.90;;;;;;4986793;28;20050;-66
2023/12/16 08:41:16;;;;;;;14.52;5.07;;;6.40;99.90;;;;;;4986653;28;20077;-64
2023/12/16 08:43:42;;;;;;;17.45;6.35;;;6.40;99.90;;;;;;4979180;28;20419;-64
2023/12/16 08:46:09;;;;;;;17.67;5.43;;;6.60;99.90;;;;;;4977808;28;20062;-65
2023/12/16 08:48:35;;;;;;;14.40;5.47;;;6.70;99.90;;;;;;4984594;28;20333;-63
2023/12/16 08:51:02;;;;;;;13.48;5.40;;;6.60;99.90;;;;;;4987625;28;20077;-64
2023/12/16 08:53:28;;;;;;;22.17;6.53;;;6.80;99.90;;;;;;4970417;28;20191;-64
2023/12/16 08:55:55;;;;;;;19.58;5.13;;;6.60;99.90;;;;;;4986850;28;20433;-64
2023/12/16 08:58:21;;;;;;;15.75;5.07;;;6.90;99.90;;;;;;4988301;28;20355;-62
2023/12/16 09:00:52;;;;;;;15.07;4.57;;;6.90;99.90;;;;;;4987566;28;20068;-64
2023/12/16 09:03:18;;;;;;;20.17;5.72;;;6.70;99.90;;;;;;4987998;28;20055;-64
2023/12/16 09:05:45;;;;;;;18.88;5.43;;;6.80;99.90;;;;;;4985418;28;20048;-65
2023/12/16 09:08:11;;;;;;;13.45;5.40;;;6.80;99.90;;;;;;4984243;28;20353;-64
2023/12/16 09:10:37;;;;;;;13.68;5.00;;;7.00;99.90;;;;;;4975025;28;20062;-64
2023/12/16 09:13:04;;;;;;;12.10;5.22;;;6.80;99.90;;;;;;4974588;28;20053;-64
2023/12/16 09:15:30;;;;;;;17.45;5.60;;;6.80;99.90;;;;;;4967701;28;20153;-64
2023/12/16 09:17:56;;;;;;;18.40;5.85;;;6.90;99.90;;;;;;4984798;28;20446;-64
2023/12/16 09:20:23;;;;;;;16.50;4.82;;;7.10;99.90;;;;;;4978632;28;20047;-65
2023/12/16 09:22:49;;;;;;;11.70;4.97;;;7.10;99.90;;;;;;5033385;28;20066;-64
2023/12/16 09:25:15;;;;;;;14.68;5.25;;;7.00;99.90;;;;;;4985653;28;20050;-64
2023/12/16 09:27:43;;;;;;;18.17;5.40;;;7.10;99.90;;;;;;4985340;28;20050;-65
2023/12/16 09:30:10;;;;;;;16.15;5.15;;;7.00;99.90;;;;;;4975925;28;20081;-65
2023/12/16 09:32:37;;;;;;;20.67;4.85;;;7.00;99.90;;;;;;4958648;28;20050;-65
2023/12/16 09:35:03;;;;;;;14.30;6.07;;;7.00;99.90;;;;;;4986172;28;20463;-65
2023/12/16 09:37:30;;;;;;;20.73;5.82;;;7.10;99.90;;;;;;4980916;28;20054;-64
2023/12/16 09:39:56;;;;;;;15.60;5.82;;;7.10;99.90;;;;;;4978008;28;20375;-65
2023/12/16 09:42:25;;;;;;;16.17;4.97;;;7.30;99.90;;;;;;4972053;28;20050;-64
2023/12/16 09:44:55;;;;;;;15.00;5.20;;;7.10;99.90;;;;;;4967876;28;20085;-65
2023/12/16 09:47:22;;;;;;;13.00;4.85;;;7.10;99.90;;;;;;4979931;28;20517;-66
2023/12/16 09:49:50;;;;;;;18.73;5.20;;;7.00;99.90;;;;;;4972685;28;20065;-64
2023/12/16 09:52:17;;;;;;;14.98;6.07;;;7.20;99.90;;;;;;4970003;28;20058;-65
2023/12/16 09:54:43;;;;;;;12.68;5.88;;;7.10;99.90;;;;;;4976814;28;20359;-65
2023/12/16 09:57:11;;;;;;;15.82;5.63;;;7.20;99.90;;;;;;4974654;28;20055;-64
2023/12/16 09:59:41;;;;;;;18.70;5.57;;;7.20;99.90;;;;;;4966518;28;20573;-65
2023/12/16 10:02:27;;;;;;;11.93;5.40;;;7.30;99.90;;;;;;4977059;28;20061;-64
2023/12/16 10:04:58;;;;;;;23.38;6.25;;;7.10;99.90;;;;;;4976215;28;20047;-65
2023/12/16 10:07:25;;;;;;;15.77;5.47;;;7.00;99.90;;;;;;4984331;28;20057;-64
2023/12/16 10:09:52;;;;;;;18.50;5.85;;;7.00;99.90;;;;;;4987398;28;20451;-64
2023/12/16 10:12:19;;;;;;;19.75;6.43;;;7.10;99.90;;;;;;5061817;28;20051;-64
2023/12/16 10:14:50;;;;;;;15.32;6.28;;;7.10;99.90;;;;;;5088788;28;20380;-63
2023/12/16 10:17:18;;;;;;;17.48;5.47;;;7.20;99.90;;;;;;5005178;28;20144;-64
2023/12/16 10:19:46;;;;;;;19.95;6.32;;;7.10;99.90;;;;;;4970463;28;20055;-64
2023/12/16 10:22:13;;;;;;;22.10;6.30;;;7.10;99.90;;;;;;4984848;28;20388;-64
2023/12/16 10:24:43;;;;;;;21.38;6.47;;;7.20;99.90;;;;;;4986197;28;20046;-64
2023/12/16 10:27:10;;;;;;;15.52;5.80;;;7.30;99.90;;;;;;4986302;28;20058;-64
2023/12/16 10:29:39;;;;;;;20.30;6.45;;;7.00;99.90;;;;;;4986733;28;20054;-63
2023/12/16 10:32:10;;;;;;;24.38;6.85;;;7.10;99.90;;;;;;4986437;28;20054;-64
2023/12/16 10:34:37;;;;;;;19.50;6.65;;;7.20;99.90;;;;;;4986005;28;20054;-64
2023/12/16 10:37:07;;;;;;;21.23;6.68;;;7.10;99.90;;;;;;4985947;28;20408;-64
2023/12/16 10:39:34;;;;;;;20.38;6.85;;;7.10;99.90;;;;;;4986018;28;20051;-64
2023/12/16 10:42:01;;;;;;;21.45;6.88;;;7.20;99.90;;;;;;4985424;28;20541;-64
2023/12/16 10:44:27;;;;;;;18.35;6.78;;;7.00;99.90;;;;;;4985251;28;20058;-64
2023/12/16 10:46:55;;;;;;;21.85;7.72;;;7.00;99.90;;;;;;4985289;28;20046;-64
2023/12/16 10:49:29;;;;;;;21.70;7.30;;;7.20;99.90;;;;;;4985633;28;20051;-64
2023/12/16 10:52:06;;;;;;;20.52;7.53;;;7.20;99.90;;;;;;4969439;28;20046;-64
2023/12/16 10:54:39;;;;;;;22.35;7.13;;;7.10;99.90;;;;;;4985509;28;20081;-64
2023/12/16 10:57:26;;;;;;;22.42;6.97;;;7.30;99.90;;;;;;4973142;28;20066;-63
2023/12/16 11:00:06;;;;;;;21.80;7.38;;;7.30;99.90;;;;;;4949894;28;20054;-64
2023/12/16 11:02:40;;;;;;;24.88;8.48;;;7.30;99.90;;;;;;4966124;28;20066;-63
2023/12/16 11:05:14;;;;;;;18.30;7.55;;;7.30;99.90;;;;;;4965696;28;20055;-64
2023/12/16 11:07:41;;;;;;;29.15;9.75;;;7.40;99.90;;;;;;4980783;28;20485;-64
2023/12/16 11:10:08;;;;;;;20.17;7.65;;;7.20;99.90;;;;;;4986223;28;20059;-63
2023/12/16 11:12:39;;;;;;;25.45;9.95;;;7.20;99.90;;;;;;4969615;28;20156;-66
2023/12/16 11:15:07;;;;;;;22.48;9.40;;;7.40;99.90;;;;;;4966276;28;20082;-63
2023/12/16 11:17:39;;;;;;;22.55;8.70;;;7.40;99.90;;;;;;4980445;28;20050;-64
2023/12/16 11:20:09;;;;;;;24.25;9.50;;;7.10;99.90;;;;;;4986012;28;20133;-63
2023/12/16 11:22:48;;;;;;;26.95;10.05;;;7.50;99.90;;;;;;4986121;28;20129;-64
2023/12/16 11:25:17;;;;;;;23.45;9.68;;;7.60;99.90;;;;;;4969251;28;20133;-64
2023/12/16 11:27:46;;;;;;;28.80;10.82;;;7.30;99.90;;;;;;4966162;28;20088;-64
2023/12/16 11:30:17;;;;;;;26.25;10.18;;;7.40;99.90;;;;;;4966049;28;20066;-65
2023/12/16 11:32:53;;;;;;;25.00;10.55;;;7.60;99.90;;;;;;4966940;28;20081;-64
2023/12/16 11:35:48;;;;;;;34.88;11.35;;;7.60;99.90;;;;;;4965677;28;20070;-64
2023/12/16 11:38:42;;;;;;;34.92;10.98;;;7.40;99.90;;;;;;4982202;28;20070;-64
2023/12/16 11:41:34;;;;;;;27.08;11.35;;;7.70;99.90;;;;;;4958406;28;20313;-65
2023/12/16 11:44:00;;;;;;;29.10;10.90;;;7.50;99.90;;;;;;4963890;28;20061;-64
2023/12/16 11:46:41;;;;;;;31.88;10.55;;;7.60;99.90;;;;;;4978631;28;20056;-65
2023/12/16 11:49:15;;;;;;;28.23;10.23;;;7.50;99.90;;;;;;4980033;28;20069;-65
2023/12/16 11:51:42;;;;;;;30.45;11.32;;;7.80;99.90;;;;;;4966734;28;20059;-66
2023/12/16 11:54:11;;;;;;;27.17;11.38;;;7.80;99.90;;;;;;4966514;28;20126;-65
2023/12/16 11:56:37;;;;;;;28.63;11.40;;;7.80;99.90;;;;;;4972801;28;20049;-65
2023/12/16 11:59:05;;;;;;;27.75;12.15;;;7.80;99.90;;;;;;4985764;28;20069;-65
2023/12/16 12:01:32;;;;;;;28.45;11.73;;;7.60;99.90;;;;;;4985824;28;20122;-65
2023/12/16 12:04:01;;;;;;;29.83;11.55;;;7.70;99.90;;;;;;4985640;28;20739;-65
2023/12/16 12:06:28;;;;;;;29.40;12.45;;;7.90;99.90;;;;;;4986005;28;20050;-64
2023/12/16 12:08:54;;;;;;;28.40;11.85;;;8.00;99.90;;;;;;4955546;28;20474;-65
2023/12/16 12:11:21;;;;;;;28.38;11.45;;;8.00;99.90;;;;;;4966051;28;20590;-65
2023/12/16 12:13:51;;;;;;;38.75;11.82;;;7.70;99.90;;;;;;4965233;28;20058;-65
2023/12/16 12:16:17;;;;;;;37.22;12.77;;;8.10;99.90;;;;;;4952192;28;20391;-65
2023/12/16 12:18:44;;;;;;;30.30;12.88;;;7.90;99.90;;;;;;4985189;28;20453;-64
2023/12/16 12:21:10;;;;;;;28.65;12.45;;;7.80;99.90;;;;;;4985766;28;20058;-65
2023/12/16 12:23:38;;;;;;;27.73;12.82;;;7.90;99.90;;;;;;4986163;28;20363;-64
2023/12/16 12:26:04;;;;;;;26.33;11.57;;;8.10;99.90;;;;;;4969600;28;20054;-64
2023/12/16 12:28:31;;;;;;;28.92;12.82;;;8.20;99.90;;;;;;4985193;28;20435;-63
2023/12/16 12:31:16;;;;;;;28.77;13.55;;;7.90;99.90;;;;;;5032996;28;20063;-64
2023/12/16 12:33:42;;;;;;;28.00;12.95;;;8.20;99.90;;;;;;5039665;28;20046;-63
2023/12/16 12:36:10;;;;;;;24.42;11.77;;;8.20;99.90;;;;;;4967333;28;20485;-64
2023/12/16 12:38:37;;;;;;;29.85;14.30;;;8.30;99.90;;;;;;4983406;28;20057;-63
2023/12/16 12:41:04;;;;;;;25.63;12.43;;;8.20;99.90;;;;;;4968411;28;20057;-63
2023/12/16 12:43:33;;;;;;;27.92;12.88;;;8.40;99.90;;;;;;4984847;28;20046;-64
2023/12/16 12:46:08;;;;;;;29.63;14.52;;;8.50;99.90;;;;;;4987179;28;20069;-64
2023/12/16 12:48:36;;;;;;;24.27;13.60;;;8.50;99.90;;;;;;4968508;28;20069;-64